地図

経路データ

SID SEASON NUMBER BASIN SUBBASIN NAME ISO_TIME NATURE LAT LON WMO_WIND WMO_PRES WMO_AGENCY TRACK_TYPE DIST2LAND LANDFALL IFLAG USA_AGENCY USA_ATCF_ID USA_LAT USA_LON USA_RECORD USA_STATUS USA_WIND USA_PRES USA_SSHS USA_R34_NE USA_R34_SE USA_R34_SW USA_R34_NW USA_R50_NE USA_R50_SE USA_R50_SW USA_R50_NW USA_R64_NE USA_R64_SE USA_R64_SW USA_R64_NW USA_POCI USA_ROCI USA_RMW USA_EYE TOKYO_LAT TOKYO_LON TOKYO_GRADE TOKYO_WIND TOKYO_PRES TOKYO_R50_DIR TOKYO_R50_LONG TOKYO_R50_SHORT TOKYO_R30_DIR TOKYO_R30_LONG TOKYO_R30_SHORT TOKYO_LAND CMA_LAT CMA_LON CMA_CAT CMA_WIND CMA_PRES HKO_LAT HKO_LON HKO_CAT HKO_WIND HKO_PRES NEWDELHI_LAT NEWDELHI_LON NEWDELHI_GRADE NEWDELHI_WIND NEWDELHI_PRES NEWDELHI_CI NEWDELHI_DP NEWDELHI_POCI REUNION_LAT REUNION_LON REUNION_TYPE REUNION_WIND REUNION_PRES REUNION_TNUM REUNION_CI REUNION_RMW REUNION_R34_NE REUNION_R34_SE REUNION_R34_SW REUNION_R34_NW REUNION_R50_NE REUNION_R50_SE REUNION_R50_SW REUNION_R50_NW REUNION_R64_NE REUNION_R64_SE REUNION_R64_SW REUNION_R64_NW BOM_LAT BOM_LON BOM_TYPE BOM_WIND BOM_PRES BOM_TNUM BOM_CI BOM_RMW BOM_R34_NE BOM_R34_SE BOM_R34_SW BOM_R34_NW BOM_R50_NE BOM_R50_SE BOM_R50_SW BOM_R50_NW BOM_R64_NE BOM_R64_SE BOM_R64_SW BOM_R64_NW BOM_ROCI BOM_POCI BOM_EYE BOM_POS_METHOD BOM_PRES_METHOD NADI_LAT NADI_LON NADI_CAT NADI_WIND NADI_PRES WELLINGTON_LAT WELLINGTON_LON WELLINGTON_WIND WELLINGTON_PRES DS824_LAT DS824_LON DS824_STAGE DS824_WIND DS824_PRES TD9636_LAT TD9636_LON TD9636_STAGE TD9636_WIND TD9636_PRES TD9635_LAT TD9635_LON TD9635_WIND TD9635_PRES TD9635_ROCI NEUMANN_LAT NEUMANN_LON NEUMANN_CLASS NEUMANN_WIND NEUMANN_PRES MLC_LAT MLC_LON MLC_CLASS MLC_WIND MLC_PRES USA_GUST BOM_GUST BOM_GUST_PER REUNION_GUST REUNION_GUST_PER USA_SEAHGT USA_SEARAD_NE USA_SEARAD_SE USA_SEARAD_SW USA_SEARAD_NW STORM_SPEED STORM_DIR
1876239N25295 1876 14 NA NA NOT_NAMED 1876-08-25 12:00:00 TS 25.0000 -65.0000 main 740 740 _____________O -1 25.0000 -65.0000 TS 35 11 56
1876239N25295 1876 14 NA NA NOT_NAMED 1876-08-25 15:00:00 TS 25.3003 -64.5005 main 779 779 _____________P -1 25.3003 -64.5005 TS 37 11 56
1876239N25295 1876 14 NA NA NOT_NAMED 1876-08-25 18:00:00 TS 25.6000 -64.0000 main 821 821 _____________O -1 25.6000 -64.0000 TS 40 11 56
1876239N25295 1876 14 NA NA NOT_NAMED 1876-08-25 21:00:00 TS 25.8998 -63.4997 main 865 865 _____________P -1 25.8998 -63.4997 TS 45 11 56
1876239N25295 1876 14 NA NA NOT_NAMED 1876-08-26 00:00:00 TS 26.2000 -63.0000 main 911 911 _____________O -1 26.2000 -63.0000 TS 50 11 57
1876239N25295 1876 14 NA NA NOT_NAMED 1876-08-26 03:00:00 TS 26.4923 -62.4996 main 959 959 _____________P -1 26.4923 -62.4996 TS 55 11 56
1876239N25295 1876 14 NA NA NOT_NAMED 1876-08-26 06:00:00 TS 26.8000 -62.0000 main 1008 1008 _____________O -1 26.8000 -62.0000 TS 60 11 55
1876239N25295 1876 14 NA NA NOT_NAMED 1876-08-26 09:00:00 TS 27.1200 -61.4847 main 1059 1059 _____________P -1 27.1200 -61.4847 TS 60 11 52
1876239N25295 1876 14 NA NA NOT_NAMED 1876-08-26 12:00:00 TS 27.5000 -61.0000 main 1120 1120 _____________O -1 27.5000 -61.0000 TS 60 12 43
1876239N25295 1876 14 NA NA NOT_NAMED 1876-08-26 15:00:00 TS 27.9772 -60.5921 main 1187 1187 _____________P -1 27.9772 -60.5921 TS 62 12 35
1876239N25295 1876 14 NA NA NOT_NAMED 1876-08-26 18:00:00 TS 28.5000 -60.2000 main 1255 1255 _____________O -1 28.5000 -60.2000 HU 65 13 36
1876239N25295 1876 14 NA NA NOT_NAMED 1876-08-26 21:00:00 TS 28.9999 -59.7572 main 1322 1322 _____________P -1 28.9999 -59.7572 HU 65 13 38
1876239N25295 1876 14 NA NA NOT_NAMED 1876-08-27 00:00:00 TS 29.5000 -59.3000 main 1394 1394 _____________O -1 29.5000 -59.3000 HU 65 13 38
1876239N25295 1876 14 NA NA NOT_NAMED 1876-08-27 03:00:00 TS 29.9998 -58.8496 main 1467 1467 _____________P -1 29.9998 -58.8496 HU 65 13 38
1876239N25295 1876 14 NA NA NOT_NAMED 1876-08-27 06:00:00 TS 30.5000 -58.4000 main 1534 1532 _____________O -1 30.5000 -58.4000 HU 65 13 38
1876239N25295 1876 14 NA NA NOT_NAMED 1876-08-27 09:00:00 TS 30.9998 -57.9569 main 1532 1500 _____________P -1 30.9998 -57.9569 HU 65 13 38
1876239N25295 1876 14 NA NA NOT_NAMED 1876-08-27 12:00:00 TS 31.5000 -57.5000 main 1500 1471 _____________O -1 31.5000 -57.5000 HU 65 13 39
1876239N25295 1876 14 NA NA NOT_NAMED 1876-08-27 15:00:00 TS 31.9999 -57.0071 main 1471 1444 _____________P -1 31.9999 -57.0071 HU 65 13 40
1876239N25295 1876 14 NA NA NOT_NAMED 1876-08-27 18:00:00 TS 32.5000 -56.5000 main 1444 1415 _____________O -1 32.5000 -56.5000 HU 65 13 40
1876239N25295 1876 14 NA NA NOT_NAMED 1876-08-27 21:00:00 TS 33.0073 -55.9996 main 1420 1387 _____________P -1 33.0073 -55.9996 HU 65 13 40
1876239N25295 1876 14 NA NA NOT_NAMED 1876-08-28 00:00:00 TS 33.5000 -55.5000 main 1387 1357 _____________O -1 33.5000 -55.5000 HU 65 13 41
1876239N25295 1876 14 NA NA NOT_NAMED 1876-08-28 03:00:00 TS 33.9573 -54.9993 main 1350 1322 _____________P -1 33.9573 -54.9993 HU 65 12 43
1876239N25295 1876 14 NA NA NOT_NAMED 1876-08-28 06:00:00 TS 34.4000 -54.5000 main 1325 1299 _____________O -1 34.4000 -54.5000 HU 65 12 43
1876239N25295 1876 14 NA NA NOT_NAMED 1876-08-28 09:00:00 TS 34.8348 -53.9992 main 1303 1257 _____________P -1 34.8348 -53.9992 HU 65 12 42
1876239N25295 1876 14 NA NA NOT_NAMED 1876-08-28 12:00:00 TS 35.3000 -53.5000 main 1257 1201 _____________O -1 35.3000 -53.5000 HU 65 13 39
1876239N25295 1876 14 NA NA NOT_NAMED 1876-08-28 15:00:00 TS 35.8498 -52.9999 main 1201 1136 _____________P -1 35.8498 -52.9999 HU 65 14 36
1876239N25295 1876 14 NA NA NOT_NAMED 1876-08-28 18:00:00 TS 36.4000 -52.5000 main 1136 1093 _____________O -1 36.4000 -52.5000 HU 65 13 39
1876239N25295 1876 14 NA NA NOT_NAMED 1876-08-28 21:00:00 TS 36.8652 -51.9623 main 1083 1043 _____________P -1 36.8652 -51.9623 HU 65 12 42
1876239N25295 1876 14 NA NA NOT_NAMED 1876-08-29 00:00:00 TS 37.3000 -51.5000 main 1043 1002 _____________O -1 37.3000 -51.5000 HU 65 11 34
1876239N25295 1876 14 NA NA NOT_NAMED 1876-08-29 03:00:00 TS 37.7571 -51.2116 main 992 951 _____________P -1 37.7571 -51.2116 HU 65 10 24
1876239N25295 1876 14 NA NA NOT_NAMED 1876-08-29 06:00:00 TS 38.2000 -51.0000 main 951 921 _____________O -1 38.2000 -51.0000 HU 65 9 24
1876239N25295 1876 14 NA NA NOT_NAMED 1876-08-29 09:00:00 TS 38.5550 -50.7491 main 912 873 _____________P -1 38.5550 -50.7491 HU 65 9 26
1876239N25295 1876 14 NA NA NOT_NAMED 1876-08-29 12:00:00 TS 39.0000 -50.5000 main 873 812 _____________O -1 39.0000 -50.5000 HU 65 11 20
1876239N25295 1876 14 NA NA NOT_NAMED 1876-08-29 15:00:00 TS 39.6226 -50.2491 main 815 735 _____________P -1 39.6226 -50.2491 HU 62 16 14
1876239N25295 1876 14 NA NA NOT_NAMED 1876-08-29 18:00:00 TS 40.5000 -50.0000 main 725 617 _____________O -1 40.5000 -50.0000 TS 60 21 10
1876239N25295 1876 14 NA NA NOT_NAMED 1876-08-29 21:00:00 TS 41.6748 -49.7850 main 607 503 _____________P -1 41.6748 -49.7850 TS 57 25 9
1876239N25295 1876 14 NA NA NOT_NAMED 1876-08-30 00:00:00 TS 43.0000 -49.5000 main 494 421 _____________O -1 43.0000 -49.5000 TS 55 26 13
1876239N25295 1876 14 NA NA NOT_NAMED 1876-08-30 03:00:00 TS 44.2506 -49.0027 main 414 376 _____________P -1 44.2506 -49.0027 TS 52 26 16
1876239N25295 1876 14 NA NA NOT_NAMED 1876-08-30 06:00:00 TS 45.5000 -48.5000 main 374 343 _____________O -1 45.5000 -48.5000 TS 50 26 13
1876239N25295 1876 14 NA NA NOT_NAMED 1876-08-30 09:00:00 TS 46.7495 -48.1862 main 343 336 _____________P -1 46.7495 -48.1862 TS 47 25 8
1876239N25295 1876 14 NA NA NOT_NAMED 1876-08-30 12:00:00 TS 48.0000 -48.0000 main 346 _____________O -1 48.0000 -48.0000 TS 45 25 6

IBTrACS Databaseについて

本データベースは、米国NOAAが公開する1842年以降の世界の熱帯低気圧のベストトラックデータアーカイブInternational Best Track Archive for Climate Stewardship (IBTrACS)を、ウェブで閲覧しやすい形式に変換したものです。

最終更新日:2021-10-19